createdAt,value
2022-09-26T00:01:06.810Z,94596.66
2022-09-26T00:03:36.721Z,94599.75
2022-09-26T00:06:05.923Z,94599.38
2022-09-26T00:08:34.398Z,94595.81
2022-09-26T00:11:05.535Z,94590.31
2022-09-26T00:13:35.853Z,94590.47
2022-09-26T00:16:04.193Z,94590.75
2022-09-26T00:18:32.175Z,94581.25
2022-09-26T00:21:05.901Z,94584.41
2022-09-26T00:23:34.001Z,94588.59
2022-09-26T00:26:01.908Z,94587.34
2022-09-26T00:28:30.003Z,94594.88
2022-09-26T00:30:58.294Z,94577.84
2022-09-26T00:33:26.452Z,94573.63
2022-09-26T00:35:56.041Z,94571.84
2022-09-26T00:38:25.681Z,94569.72
2022-09-26T00:40:54.138Z,94578.00
2022-09-26T00:43:30.498Z,94578.69
2022-09-26T00:46:01.920Z,94575.25
2022-09-26T00:48:31.291Z,94574.56
2022-09-26T00:51:00.758Z,94572.59
2022-09-26T00:53:36.285Z,94562.75
2022-09-26T00:56:10.034Z,94558.34
2022-09-26T00:58:42.666Z,94561.19
2022-09-26T01:01:11.360Z,94557.56
2022-09-26T01:03:42.699Z,94543.31
2022-09-26T01:06:10.727Z,94551.28
2022-09-26T01:08:43.986Z,94554.44
2022-09-26T01:11:17.236Z,94541.91
2022-09-26T01:13:45.704Z,94536.41
2022-09-26T01:16:13.774Z,94537.88
2022-09-26T01:18:42.417Z,94541.34
2022-09-26T01:21:31.772Z,94544.88
2022-09-26T01:24:27.261Z,94545.38
2022-09-26T01:27:15.139Z,94548.72
2022-09-26T01:30:16.001Z,94550.22
2022-09-26T01:33:16.534Z,94545.38
2022-09-26T01:36:17.272Z,94547.53
2022-09-26T01:38:53.902Z,94539.03
2022-09-26T01:41:44.621Z,94553.19
2022-09-26T01:44:22.605Z,94549.41
2022-09-26T01:46:55.582Z,94553.09
2022-09-26T01:49:29.002Z,94539.63
2022-09-26T01:52:03.232Z,94544.31
2022-09-26T01:54:38.600Z,94533.84
2022-09-26T01:57:13.821Z,94538.25
2022-09-26T01:59:46.938Z,94533.63
2022-09-26T02:02:21.479Z,94545.38
2022-09-26T02:04:55.969Z,94536.41
2022-09-26T02:07:31.233Z,94537.19
2022-09-26T02:10:04.263Z,94541.75
2022-09-26T02:12:36.661Z,94527.34
2022-09-26T02:15:09.300Z,94534.97
2022-09-26T02:17:43.327Z,94537.97
2022-09-26T02:20:16.730Z,94525.72
2022-09-26T02:22:46.583Z,94520.06
2022-09-26T02:25:16.608Z,94523.28
2022-09-26T02:27:44.511Z,94526.88
2022-09-26T02:30:13.496Z,94521.44
2022-09-26T02:32:43.141Z,94519.72
2022-09-26T02:35:31.143Z,94523.50
2022-09-26T02:37:59.294Z,94509.53
2022-09-26T02:40:36.665Z,94518.25
2022-09-26T02:43:24.922Z,94514.53
2022-09-26T02:46:05.780Z,94515.09
2022-09-26T02:48:55.732Z,94514.88
2022-09-26T02:51:40.785Z,94522.22
2022-09-26T02:54:23.460Z,94526.63
2022-09-26T02:57:08.697Z,94516.31
2022-09-26T02:59:45.983Z,94518.63
2022-09-26T03:02:17.930Z,94516.56
2022-09-26T03:05:04.461Z,94511.41
2022-09-26T03:07:38.472Z,94501.44
2022-09-26T03:10:10.278Z,94510.06
2022-09-26T03:12:40.378Z,94520.19
2022-09-26T03:15:10.431Z,94518.63
2022-09-26T03:17:41.153Z,94508.72
2022-09-26T03:20:14.769Z,94506.63
2022-09-26T03:22:44.523Z,94512.66
2022-09-26T03:25:16.886Z,94500.59
2022-09-26T03:27:52.835Z,94508.75
2022-09-26T03:30:22.107Z,94502.69
2022-09-26T03:33:09.847Z,94493.84
2022-09-26T03:35:39.208Z,94502.69
2022-09-26T03:38:13.590Z,94494.84
2022-09-26T03:40:46.891Z,94488.97
2022-09-26T03:43:34.359Z,94498.78
2022-09-26T03:46:04.561Z,94493.63
2022-09-26T03:48:32.878Z,94497.69
2022-09-26T03:51:08.157Z,94494.06
2022-09-26T03:53:37.409Z,94484.72
2022-09-26T03:56:09.396Z,94490.06
2022-09-26T03:58:37.861Z,94488.13
2022-09-26T04:01:08.201Z,94484.38
2022-09-26T04:03:37.573Z,94486.56
2022-09-26T04:06:09.476Z,94481.88
2022-09-26T04:08:40.328Z,94476.97
2022-09-26T04:11:11.159Z,94463.22
2022-09-26T04:13:51.361Z,94475.69
2022-09-26T04:16:23.884Z,94467.69
2022-09-26T04:18:58.381Z,94464.28
2022-09-26T04:21:29.657Z,94468.03
2022-09-26T04:23:59.222Z,94463.28
2022-09-26T04:26:27.073Z,94454.84
2022-09-26T04:28:57.141Z,94442.25
2022-09-26T04:31:37.966Z,94441.75
2022-09-26T04:34:11.931Z,94444.53
2022-09-26T04:36:41.625Z,94439.56
2022-09-26T04:39:09.766Z,94437.63
2022-09-26T04:41:38.711Z,94446.69
2022-09-26T04:44:06.502Z,94446.63
2022-09-26T04:46:34.859Z,94450.13
2022-09-26T04:49:03.064Z,94442.34
2022-09-26T04:51:32.981Z,94446.78
2022-09-26T04:54:02.175Z,94433.78
2022-09-26T04:56:34.276Z,94436.69
2022-09-26T04:59:02.264Z,94438.44
2022-09-26T05:01:40.280Z,94441.69
2022-09-26T05:04:13.404Z,94442.31
2022-09-26T05:06:41.436Z,94435.97
2022-09-26T05:09:17.370Z,94437.16
2022-09-26T05:11:53.371Z,94434.78
2022-09-26T05:14:21.261Z,94433.22
2022-09-26T05:16:50.215Z,94440.13
2022-09-26T05:19:19.071Z,94440.66
2022-09-26T05:22:07.098Z,94443.06
2022-09-26T05:24:53.647Z,94438.09
2022-09-26T05:27:21.816Z,94442.44
2022-09-26T05:29:49.736Z,94441.28
2022-09-26T05:32:17.639Z,94437.16
2022-09-26T05:34:46.502Z,94440.81
2022-09-26T05:37:17.146Z,94441.28
2022-09-26T05:40:03.995Z,94451.25
2022-09-26T05:42:36.233Z,94450.38
2022-09-26T05:45:09.342Z,94447.13
2022-09-26T05:47:40.490Z,94445.97
2022-09-26T05:50:10.863Z,94440.06
2022-09-26T05:52:40.681Z,94440.59
2022-09-26T05:55:12.978Z,94430.31
2022-09-26T05:57:59.678Z,94425.91
2022-09-26T06:00:41.826Z,94432.28
2022-09-26T06:03:09.957Z,94433.78
2022-09-26T06:05:48.164Z,94443.97
2022-09-26T06:08:17.352Z,94432.22
2022-09-26T06:11:14.433Z,94434.16
2022-09-26T06:13:45.809Z,94436.13
2022-09-26T06:16:18.248Z,94447.59
2022-09-26T06:18:47.522Z,94450.94
2022-09-26T06:21:18.055Z,94455.50
2022-09-26T06:23:48.570Z,94453.94
2022-09-26T06:26:22.098Z,94453.75
2022-09-26T06:28:51.001Z,94458.78
2022-09-26T06:31:21.989Z,94464.56
2022-09-26T06:34:17.596Z,94454.31
2022-09-26T06:36:55.217Z,94458.00
2022-09-26T06:39:23.254Z,94460.25
2022-09-26T06:41:53.352Z,94468.09
2022-09-26T06:44:44.584Z,94459.34
2022-09-26T06:47:31.081Z,94462.69
2022-09-26T06:50:31.652Z,94457.47
2022-09-26T06:53:10.445Z,94466.69
2022-09-26T06:55:38.859Z,94465.38
2022-09-26T06:58:08.149Z,94465.53
2022-09-26T07:00:54.789Z,94470.09
2022-09-26T07:03:45.617Z,94463.63
2022-09-26T07:06:27.652Z,94459.06
2022-09-26T07:09:03.058Z,94453.78
2022-09-26T07:12:12.792Z,94448.75
2022-09-26T07:14:37.577Z,94438.69
2022-09-26T07:17:16.566Z,94443.09
2022-09-26T07:19:52.325Z,94436.25
2022-09-26T07:22:38.831Z,94438.47
2022-09-26T07:25:07.857Z,94434.31
2022-09-26T07:27:36.069Z,94444.53
2022-09-26T07:30:07.933Z,94448.19
2022-09-26T07:32:39.748Z,94447.34
2022-09-26T07:35:44.373Z,94449.34
2022-09-26T07:38:13.135Z,94439.84
2022-09-26T07:40:43.269Z,94439.81
2022-09-26T07:43:20.654Z,94452.81
2022-09-26T07:46:12.967Z,94447.56
2022-09-26T07:49:02.868Z,94443.91
2022-09-26T07:51:49.824Z,94453.19
2022-09-26T07:54:21.728Z,94447.28
2022-09-26T07:57:12.595Z,94452.44
2022-09-26T07:59:59.484Z,94449.56
2022-09-26T08:02:50.860Z,94449.94
2022-09-26T08:05:20.848Z,94446.94
2022-09-26T08:07:50.237Z,94454.34
2022-09-26T08:10:47.506Z,94463.56
2022-09-26T08:13:45.519Z,94457.44
2022-09-26T08:16:19.544Z,94453.31
2022-09-26T08:18:55.712Z,94451.88
2022-09-26T08:21:25.680Z,94452.44
2022-09-26T08:23:57.120Z,94467.63
2022-09-26T08:26:46.150Z,94448.03
2022-09-26T08:29:27.415Z,94456.75
2022-09-26T08:31:58.230Z,94461.34
2022-09-26T08:34:27.698Z,94454.81
2022-09-26T08:37:15.997Z,94449.28
2022-09-26T08:40:03.836Z,94448.72
2022-09-26T08:43:04.223Z,94451.09
2022-09-26T08:46:07.356Z,94453.31
2022-09-26T08:49:08.833Z,94452.19
2022-09-26T08:51:41.620Z,94445.59
2022-09-26T08:54:17.768Z,94448.16
2022-09-26T08:56:48.808Z,94456.97
2022-09-26T08:59:26.801Z,94449.13
2022-09-26T09:01:59.470Z,94445.47
2022-09-26T09:04:57.475Z,94443.25
2022-09-26T09:07:27.737Z,94449.53
2022-09-26T09:10:02.290Z,94453.34
2022-09-26T09:12:57.373Z,94444.78
2022-09-26T09:15:55.776Z,94458.44
2022-09-26T09:18:40.385Z,94439.13
2022-09-26T09:21:41.644Z,94441.88
2022-09-26T09:24:52.711Z,94443.78
2022-09-26T09:30:24.428Z,94443.44
2022-09-26T09:33:15.845Z,94453.50
2022-09-26T09:35:53.751Z,94441.53
2022-09-26T09:38:46.970Z,94440.16
2022-09-26T09:41:30.062Z,94436.53
2022-09-26T09:44:02.215Z,94440.03
2022-09-26T09:46:35.834Z,94443.78
2022-09-26T09:49:20.070Z,94437.44
2022-09-26T09:52:03.553Z,94435.88
2022-09-26T09:54:47.447Z,94434.59
2022-09-26T09:57:43.796Z,94433.97
2022-09-26T10:00:16.834Z,94430.06
2022-09-26T10:03:02.213Z,94430.31
2022-09-26T10:05:41.668Z,94436.31
2022-09-26T10:08:14.173Z,94412.78
2022-09-26T10:11:14.135Z,94428.84
2022-09-26T10:14:05.827Z,94417.31
2022-09-26T10:17:19.528Z,94415.28
2022-09-26T10:20:00.040Z,94415.81
2022-09-26T10:22:35.193Z,94406.16
2022-09-26T10:25:08.504Z,94397.00
2022-09-26T10:27:42.302Z,94395.34
2022-09-26T10:30:30.218Z,94384.75
2022-09-26T10:33:05.306Z,94365.78
2022-09-26T10:36:05.089Z,94380.22
2022-09-26T10:38:54.918Z,94375.47
2022-09-26T10:41:23.801Z,94385.47
2022-09-26T10:43:55.486Z,94366.06
2022-09-26T10:46:46.702Z,94371.06
2022-09-26T10:49:39.918Z,94383.63
2022-09-26T10:52:18.808Z,94382.84
2022-09-26T10:54:57.243Z,94390.97
2022-09-26T10:57:30.722Z,94372.94
2022-09-26T11:00:03.470Z,94388.09
2022-09-26T11:02:33.483Z,94380.72
2022-09-26T11:05:24.285Z,94372.38
2022-09-26T11:07:58.265Z,94375.63
2022-09-26T11:10:48.840Z,94380.38
2022-09-26T11:13:24.024Z,94384.28
2022-09-26T11:16:02.261Z,94371.31
2022-09-26T11:18:40.931Z,94380.75
2022-09-26T11:21:28.185Z,94385.03
2022-09-26T11:24:04.428Z,94377.41
2022-09-26T11:26:38.831Z,94379.59
2022-09-26T11:29:18.890Z,94371.66
2022-09-26T11:32:05.625Z,94379.91
2022-09-26T11:35:14.194Z,94375.06
2022-09-26T11:37:59.043Z,94377.28
2022-09-26T11:40:37.598Z,94369.22
2022-09-26T11:43:28.465Z,94363.59
2022-09-26T11:46:21.195Z,94360.44
2022-09-26T11:49:23.321Z,94343.22
2022-09-26T11:52:59.756Z,94349.97
2022-09-26T11:55:37.195Z,94342.72
2022-09-26T11:58:15.265Z,94347.94
2022-09-26T12:00:55.868Z,94351.78
2022-09-26T12:03:51.147Z,94347.09
2022-09-26T12:06:33.444Z,94337.06
2022-09-26T12:09:34.214Z,94326.50
2022-09-26T12:12:12.475Z,94334.44
2022-09-26T12:14:53.925Z,94338.94
2022-09-26T12:17:35.427Z,94321.94
2022-09-26T12:20:19.882Z,94313.66
2022-09-26T12:22:53.495Z,94306.75
2022-09-26T12:25:49.570Z,94307.88
2022-09-26T12:28:30.732Z,94298.78
2022-09-26T12:31:07.780Z,94298.19
2022-09-26T12:33:53.378Z,94303.03
2022-09-26T12:36:34.085Z,94300.09
2022-09-26T12:39:16.650Z,94295.41
2022-09-26T12:42:17.259Z,94288.84
2022-09-26T12:45:05.378Z,94274.63
2022-09-26T12:48:00.426Z,94293.88
2022-09-26T12:50:39.671Z,94276.88
2022-09-26T12:53:43.669Z,94273.72
2022-09-26T12:56:22.240Z,94268.22
2022-09-26T12:59:16.873Z,94264.84
2022-09-26T13:02:22.750Z,94265.97
2022-09-26T13:05:14.971Z,94263.72
2022-09-26T13:07:54.626Z,94252.59
2022-09-26T13:10:31.829Z,94249.06
2022-09-26T13:13:24.785Z,94254.72
2022-09-26T13:16:11.280Z,94251.31
2022-09-26T13:18:43.434Z,94253.88
2022-09-26T13:21:15.159Z,94244.81
2022-09-26T13:23:53.590Z,94240.78
2022-09-26T13:26:28.947Z,94231.09
2022-09-26T13:29:17.322Z,94220.50
2022-09-26T13:31:55.318Z,94224.59
2022-09-26T13:34:31.304Z,94213.88
2022-09-26T13:37:01.034Z,94215.03
2022-09-26T13:39:35.284Z,94209.47
2022-09-26T13:42:08.588Z,94210.09
2022-09-26T13:44:55.609Z,94202.53
2022-09-26T13:47:40.384Z,94215.72
2022-09-26T13:50:23.416Z,94211.94
2022-09-26T13:53:05.526Z,94209.50
2022-09-26T13:55:34.448Z,94202.22
2022-09-26T13:58:07.018Z,94204.03
2022-09-26T14:00:54.578Z,94205.69
2022-09-26T14:03:47.821Z,94205.41
2022-09-26T14:06:36.818Z,94210.94
2022-09-26T14:09:25.791Z,94203.88
2022-09-26T14:12:50.766Z,94197.06
2022-09-26T14:15:24.575Z,94199.28
2022-09-26T14:18:17.036Z,94201.69
2022-09-26T14:21:01.660Z,94183.94
2022-09-26T14:23:42.728Z,94191.09
2022-09-26T14:26:19.114Z,94190.66
2022-09-26T14:28:56.553Z,94171.88
2022-09-26T14:31:42.652Z,94170.94
2022-09-26T14:34:21.274Z,94171.22
2022-09-26T14:36:50.415Z,94141.25
2022-09-26T14:39:33.328Z,94159.91
2022-09-26T14:42:09.791Z,94151.38
2022-09-26T14:44:40.606Z,94150.38
2022-09-26T14:47:16.409Z,94139.94
2022-09-26T14:49:53.053Z,94155.66
2022-09-26T14:52:22.201Z,94148.69
2022-09-26T14:54:50.556Z,94155.84
2022-09-26T14:57:25.137Z,94149.31
2022-09-26T14:59:54.902Z,94146.31
2022-09-26T15:02:41.519Z,94137.31
2022-09-26T15:05:23.344Z,94139.94
2022-09-26T15:07:53.540Z,94138.13
2022-09-26T15:10:29.160Z,94139.16
2022-09-26T15:13:05.528Z,94128.28
2022-09-26T15:15:44.080Z,94120.47
2022-09-26T15:18:17.189Z,94126.63
2022-09-26T15:20:53.194Z,94117.53
2022-09-26T15:23:26.346Z,94133.38
2022-09-26T15:25:56.396Z,94124.63
2022-09-26T15:28:25.420Z,94131.13
2022-09-26T15:31:24.457Z,94130.06
2022-09-26T15:33:56.484Z,94130.00
2022-09-26T15:36:24.481Z,94135.31
2022-09-26T15:38:52.738Z,94129.25
2022-09-26T15:41:35.040Z,94134.72
2022-09-26T15:44:05.778Z,94130.50
2022-09-26T15:46:35.228Z,94133.16
2022-09-26T15:49:03.254Z,94128.44
2022-09-26T15:51:39.038Z,94131.25
2022-09-26T15:54:15.993Z,94127.94
2022-09-26T15:56:49.830Z,94126.34
2022-09-26T15:59:25.358Z,94090.38
2022-09-26T16:01:55.353Z,94114.53
2022-09-26T16:04:27.146Z,94112.41
2022-09-26T16:06:59.453Z,94117.38
2022-09-26T16:09:33.340Z,94111.44
2022-09-26T16:12:04.105Z,94110.28
2022-09-26T16:14:41.239Z,94115.84
2022-09-26T16:17:22.964Z,94112.13
2022-09-26T16:19:52.966Z,94127.53
2022-09-26T16:22:45.452Z,94119.25
2022-09-26T16:25:52.888Z,94131.88
2022-09-26T16:28:44.830Z,94120.31
2022-09-26T16:31:24.685Z,94123.19
2022-09-26T16:33:56.865Z,94117.06
2022-09-26T16:36:27.065Z,94120.53
2022-09-26T16:38:57.401Z,94113.81
2022-09-26T16:41:59.393Z,94112.66
2022-09-26T16:44:28.823Z,94115.97
2022-09-26T16:47:01.737Z,94116.19
2022-09-26T16:49:50.613Z,94104.41
2022-09-26T16:52:26.784Z,94109.06
2022-09-26T16:54:55.929Z,94106.72
2022-09-26T16:57:26.714Z,94101.66
2022-09-26T17:00:15.674Z,94102.09
2022-09-26T17:02:42.847Z,94093.69
2022-09-26T17:05:18.644Z,94107.03
2022-09-26T17:07:47.753Z,94106.47
2022-09-26T17:10:16.653Z,94100.41
2022-09-26T17:12:51.533Z,94094.63
2022-09-26T17:15:25.318Z,94094.16
2022-09-26T17:17:54.209Z,94091.97
2022-09-26T17:20:24.489Z,94104.38
2022-09-26T17:22:54.755Z,94117.88
2022-09-26T17:25:24.929Z,94112.66
2022-09-26T17:27:57.784Z,94113.97
2022-09-26T17:30:25.832Z,94118.41
2022-09-26T17:32:54.724Z,94127.44
2022-09-26T17:35:29.501Z,94121.16
2022-09-26T17:37:57.794Z,94127.38
2022-09-26T17:40:27.695Z,94125.97
2022-09-26T17:42:57.059Z,94131.66
2022-09-26T17:45:29.025Z,94130.81
2022-09-26T17:47:59.372Z,94124.19
2022-09-26T17:50:31.225Z,94123.72
2022-09-26T17:53:00.909Z,94121.53
2022-09-26T17:55:29.954Z,94128.22
2022-09-26T17:57:59.792Z,94117.63
2022-09-26T18:00:40.349Z,94126.34
2022-09-26T18:03:13.564Z,94127.31
2022-09-26T18:05:46.584Z,94132.34
2022-09-26T18:08:21.934Z,94126.09
2022-09-26T18:10:52.607Z,94118.16
2022-09-26T18:13:25.089Z,94112.47
2022-09-26T18:15:53.433Z,94116.00
2022-09-26T18:18:27.819Z,94120.66
2022-09-26T18:20:58.838Z,94107.88
2022-09-26T18:23:29.749Z,94092.91
2022-09-26T18:26:00.052Z,94087.84
2022-09-26T18:28:28.264Z,94094.22
2022-09-26T18:31:00.369Z,94091.38
2022-09-26T18:33:29.159Z,94104.75
2022-09-26T18:35:59.411Z,94119.41
2022-09-26T18:38:27.423Z,94100.25
2022-09-26T18:40:59.442Z,94109.75
2022-09-26T18:43:37.656Z,94107.59
2022-09-26T18:46:09.987Z,94102.69
2022-09-26T18:48:39.734Z,94098.00
2022-09-26T18:51:09.457Z,94104.28
2022-09-26T18:53:38.050Z,94109.13
2022-09-26T18:56:23.637Z,94099.69
2022-09-26T18:58:52.057Z,94107.19
2022-09-26T19:01:27.493Z,94101.72
2022-09-26T19:03:58.467Z,94104.28
2022-09-26T19:06:31.750Z,94099.50
2022-09-26T19:09:01.845Z,94105.19
2022-09-26T19:11:32.582Z,94100.75
2022-09-26T19:14:06.859Z,94104.31
2022-09-26T19:16:34.992Z,94108.00
2022-09-26T19:19:02.894Z,94100.97
2022-09-26T19:21:36.214Z,94102.72
2022-09-26T19:24:07.686Z,94100.94
2022-09-26T19:26:41.211Z,94103.28
2022-09-26T19:29:14.836Z,94093.91
2022-09-26T19:31:43.909Z,94089.22
2022-09-26T19:34:15.387Z,94080.19
2022-09-26T19:36:44.845Z,94075.66
2022-09-26T19:39:14.877Z,94067.47
2022-09-26T19:41:43.021Z,94061.09
2022-09-26T19:44:12.293Z,94055.94
2022-09-26T19:46:41.498Z,94046.84
2022-09-26T19:49:17.289Z,94046.06
2022-09-26T19:51:47.652Z,94038.03
2022-09-26T19:54:18.481Z,94034.59
2022-09-26T19:56:47.599Z,94030.91
2022-09-26T19:59:17.148Z,94035.81
2022-09-26T20:01:47.010Z,94028.81
2022-09-26T20:04:17.631Z,94023.84
2022-09-26T20:06:47.341Z,94027.00
2022-09-26T20:09:17.943Z,94021.09
2022-09-26T20:11:46.448Z,94015.53
2022-09-26T20:14:26.420Z,94006.28
2022-09-26T20:16:57.520Z,94005.41
2022-09-26T20:19:33.190Z,93990.84
2022-09-26T20:22:04.051Z,93990.75
2022-09-26T20:24:33.553Z,93992.78
2022-09-26T20:27:04.014Z,93983.84
2022-09-26T20:29:52.132Z,93987.47
2022-09-26T20:32:20.148Z,93980.00
2022-09-26T20:34:48.261Z,93977.47
2022-09-26T20:37:19.793Z,93965.31
2022-09-26T20:39:48.006Z,93971.09
2022-09-26T20:42:18.645Z,93971.56
2022-09-26T20:44:48.770Z,93962.84
2022-09-26T20:47:21.083Z,93962.56
2022-09-26T20:49:54.780Z,93969.00
2022-09-26T20:52:26.629Z,93962.72
2022-09-26T20:54:55.214Z,93955.84
2022-09-26T20:57:23.670Z,93955.69
2022-09-26T20:59:52.153Z,93958.34
2022-09-26T21:02:28.884Z,93958.44
2022-09-26T21:04:58.156Z,93952.66
2022-09-26T21:07:27.793Z,93951.72
2022-09-26T21:09:55.635Z,93947.09
2022-09-26T21:12:23.551Z,93943.84
2022-09-26T21:14:51.788Z,93943.03
2022-09-26T21:17:27.994Z,93948.69
2022-09-26T21:19:56.216Z,93940.09
2022-09-26T21:22:45.223Z,93940.97
2022-09-26T21:25:18.571Z,93930.38
2022-09-26T21:27:46.873Z,93925.50
2022-09-26T21:30:16.186Z,93919.34
2022-09-26T21:32:46.307Z,93911.53
2022-09-26T21:35:18.385Z,93913.16
2022-09-26T21:37:50.228Z,93912.06
2022-09-26T21:40:19.051Z,93908.78
2022-09-26T21:42:51.776Z,93905.69
2022-09-26T21:45:26.401Z,93893.50
2022-09-26T21:47:55.728Z,93899.59
2022-09-26T21:50:26.829Z,93900.34
2022-09-26T21:53:01.706Z,93880.78
2022-09-26T21:55:33.625Z,93876.19
2022-09-26T21:58:05.987Z,93875.59
2022-09-26T22:00:33.829Z,93875.56
2022-09-26T22:03:02.176Z,93875.03
2022-09-26T22:05:30.055Z,93869.88
2022-09-26T22:07:59.344Z,93861.16
2022-09-26T22:10:27.977Z,93849.91
2022-09-26T22:12:56.653Z,93847.84
2022-09-26T22:15:24.613Z,93828.69
2022-09-26T22:17:52.463Z,93827.44
2022-09-26T22:20:20.424Z,93830.47
2022-09-26T22:22:48.342Z,93831.16
2022-09-26T22:25:17.855Z,93821.34
2022-09-26T22:27:45.829Z,93809.38
2022-09-26T22:30:15.200Z,93814.19
2022-09-26T22:32:43.077Z,93806.19
2022-09-26T22:35:11.123Z,93801.66
2022-09-26T22:37:39.830Z,93797.59
2022-09-26T22:40:08.801Z,93792.72
2022-09-26T22:42:38.005Z,93788.84
2022-09-26T22:45:06.421Z,93783.22
2022-09-26T22:47:34.283Z,93779.06
2022-09-26T22:50:02.137Z,93774.84
2022-09-26T22:52:30.124Z,93772.44
2022-09-26T22:54:57.970Z,93758.28
2022-09-26T22:57:26.225Z,93755.94
2022-09-26T22:59:55.416Z,93765.25
2022-09-26T23:02:23.341Z,93760.38
2022-09-26T23:04:51.266Z,93754.63
2022-09-26T23:07:20.162Z,93756.19
2022-09-26T23:09:48.095Z,93749.50
2022-09-26T23:12:16.123Z,93753.47
2022-09-26T23:14:43.980Z,93749.13
2022-09-26T23:17:13.817Z,93741.66
2022-09-26T23:19:42.203Z,93746.16
2022-09-26T23:22:10.143Z,93733.09
2022-09-26T23:24:38.208Z,93720.41
2022-09-26T23:27:06.160Z,93722.97
2022-09-26T23:29:34.052Z,93735.16
2022-09-26T23:32:02.386Z,93719.31
2022-09-26T23:34:31.700Z,93726.09
2022-09-26T23:36:59.572Z,93716.59
2022-09-26T23:39:27.488Z,93720.19
2022-09-26T23:41:55.884Z,93722.75
2022-09-26T23:44:23.795Z,93720.03
2022-09-26T23:46:51.708Z,93737.13
2022-09-26T23:49:19.602Z,93720.81
2022-09-26T23:51:48.970Z,93717.00
2022-09-26T23:54:16.817Z,93720.81
2022-09-26T23:56:44.719Z,93713.41
2022-09-26T23:59:12.615Z,93717.00
